Terminal Aerodrome Forecast
Issued by NWS

Home | Current Version | Previous Version | Text Only | Print | Product List | Glossary On
Versions: 1 2 3 4 5 6 7 8 9 10 11 12 13 14
000
FTUS43 KGRR 161740
TAFBTL
TAF
KBTL 161740Z 1618/1718 14006KT 4SM -FZRA BR OVC040
     FM161900 11007KT 4SM -RA BR OVC015
     FM162100 11007KT 1 1/2SM -RA BR OVC004
     FM171300 21007KT 3/4SM BR VCSH OVC002=

USA.gov is the U.S. government's official web portal to all federal, state and local government web resources and services.